• Join FlightAware (Why Join?)
  • Login
  • US Flag 
09:58PM EDT


 

Airport Tracker/Info


-or-


 

Live Flight TrackerFlight Track Log ✈ N560HM ✈ 24-Mar-2014 ✈ KAGC - KBUF

Flight Track Log - Related Links

Times and Time Zones

All times are in EDT time to prevent confusion due to time zone crossing. See the N560HM flight status page for this flight to view local times or setup timezone preferences in your user account.

Time Position Orientation Groundspeed Altitude Reporting Facility
EDT Latitude Longitude Course Direction KTS MPH feet Rate Location/Type
10:10AM 40.4211 -79.9528 31° Northeast 207 238 3,000  Level Cleveland Center
10:11AM 40.4733 -79.9083 33° Northeast 219 252 3,600 1,800 Climbing Cleveland Center
10:12AM 40.5272 -79.8611 34° Northeast 228 262 6,800 2,460 Climbing Cleveland Center
10:13AM 40.5861 -79.8031 37° Northeast 257 296 8,800 1,920 Climbing Cleveland Center
10:14AM 40.7960 -80.1870 335° Northwest  Level FlightAware Approximate
10:14AM 40.6592 -79.7842 11° North 266 306 10,800  Level Cleveland Center
10:15AM 40.8660 -80.1572 31° Northeast  Level FlightAware Approximate
10:15AM 40.7553 -79.7603 11° North 287 330 13,100  Level Cleveland Center
10:16AM 40.8381 -79.7378 12° North 301 346 14,400 1,500 Climbing Cleveland Center
10:17AM 40.9225 -79.7161 11° North 304 350 16,200 1,200 Climbing Cleveland Center
10:18AM 41.0111 -79.6900 13° North 323 372 17,000 360 Climbing Cleveland Center
10:19AM 41.1025 -79.6658 11° North 330 380 17,000  Level Cleveland Center
10:20AM 41.1931 -79.6406 12° North 332 382 17,000  Level Cleveland Center
10:21AM 41.3058 -79.6106 11° North 341 392 17,000  Level Cleveland Center
10:22AM 41.3958 -79.5850 12° North 337 388 17,000  Level Cleveland Center
10:23AM 41.4856 -79.5586 12° North 333 383 17,000  Level Cleveland Center
10:24AM 41.5797 -79.5325 12° North 337 388 17,000  Level Cleveland Center
10:25AM 41.6706 -79.5075 12° North 337 388 17,100  Climbing Cleveland Center
10:26AM 41.7617 -79.4825 12° North 333 383 17,100  Level Cleveland Center
10:27AM 41.8711 -79.4508 12° North 336 387 17,100 -240 Level Cleveland Center
10:28AM 41.9628 -79.4242 12° North 335 386 16,700 -720 Descending Cleveland Center
10:29AM 42.0475 -79.4008 12° North 313 360 15,700 -960 Descending Cleveland Center
10:30AM 42.1367 -79.3772 11° North 323 372 14,800 -960 Descending Cleveland Center
10:31AM 42.2236 -79.3500 13° North 324 373 13,800 -960 Descending Cleveland Center
10:32AM 42.3094 -79.3275 11° North 319 367 12,900 -1,020 Descending Cleveland Center
10:33AM 42.4092 -79.2972 13° North 304 350 11,700 -1,260 Descending Cleveland Center
10:34AM 42.4847 -79.2756 12° North 297 342 10,300 -1,560 Descending Cleveland Center
10:35AM 42.5644 -79.2531 12° North 265 305 8,500 -1,500 Descending Cleveland Center
10:36AM 42.6372 -79.2314 12° North 259 298 7,200 -780 Descending Cleveland Center
10:37AM 42.7106 -79.2086 13° North 259 298 7,000 -120 Descending Cleveland Center
10:39AM 42.7625 -79.1458 42° Northeast 259 298 7,000  Level Cleveland Center
10:40AM 42.8200 -79.0781 41° Northeast 259 298 7,000  Level Cleveland Center
10:41AM 42.8761 -79.0097 42° Northeast 260 299 7,000 -420 Level Cleveland Center
10:42AM 42.9333 -78.9419 41° Northeast 260 299 6,200 -1,200 Descending Cleveland Center
10:43AM 42.9833 -78.8728 45° Northeast 250 288 4,600 -1,620 Descending Cleveland Center
10:44AM 43.0167 -78.8167 51° Northeast 232 267 3,200 -1,140 Descending Buffalo TRACON
10:45AM 43.0500 -78.7333 61° Northeast 213 245 2,500 -600 Descending Buffalo TRACON
10:46AM 43.0167 -78.6833 132° Southeast 162 186 2,100 -600 Descending Buffalo TRACON
10:47AM 42.9833 -78.6833 180° South 128 147 1,400 -660 Descending Buffalo TRACON
10:48AM 42.9500 -78.7167 216° Southwest 106 122 800 -600 Descending Buffalo TRACON